createdAt,value
2022-09-06T00:01:15.516Z,21.54
2022-09-06T00:03:42.691Z,21.52
2022-09-06T00:06:20.073Z,21.17
2022-09-06T00:08:48.489Z,21.42
2022-09-06T00:11:17.006Z,21.55
2022-09-06T00:13:43.728Z,21.51
2022-09-06T00:16:19.860Z,22.10
2022-09-06T00:18:47.327Z,21.98
2022-09-06T00:21:29.249Z,21.88
2022-09-06T00:23:56.575Z,22.27
2022-09-06T00:26:23.874Z,22.45
2022-09-06T00:28:50.525Z,22.43
2022-09-06T00:31:23.286Z,22.14
2022-09-06T00:33:50.656Z,22.28
2022-09-06T00:36:18.900Z,21.20
2022-09-06T00:38:46.315Z,22.03
2022-09-06T00:41:15.322Z,22.08
2022-09-06T00:43:42.939Z,22.39
2022-09-06T00:46:18.145Z,21.43
2022-09-06T00:48:50.337Z,21.37
2022-09-06T00:51:20.489Z,21.77
2022-09-06T00:53:47.443Z,21.61
2022-09-06T00:56:14.775Z,21.94
2022-09-06T00:58:42.070Z,22.05
2022-09-06T01:01:08.829Z,21.78
2022-09-06T01:03:37.733Z,21.53
2022-09-06T01:06:24.653Z,21.48
2022-09-06T01:09:20.887Z,21.61
2022-09-06T01:11:53.310Z,21.90
2022-09-06T01:14:58.346Z,22.16
2022-09-06T01:17:43.476Z,21.44
2022-09-06T01:20:45.090Z,21.40
2022-09-06T01:23:17.615Z,21.71
2022-09-06T01:26:20.398Z,21.91
2022-09-06T01:28:49.712Z,21.83
2022-09-06T01:31:25.430Z,21.80
2022-09-06T01:33:52.018Z,20.88
2022-09-06T01:36:26.901Z,21.04
2022-09-06T01:38:56.444Z,21.26
2022-09-06T01:41:23.388Z,21.67
2022-09-06T01:43:53.843Z,21.30
2022-09-06T01:46:45.340Z,20.87
2022-09-06T01:50:01.987Z,21.69
2022-09-06T01:53:07.532Z,21.42
2022-09-06T01:55:46.196Z,21.51
2022-09-06T01:58:31.098Z,22.15
2022-09-06T02:01:14.412Z,21.44
2022-09-06T02:03:59.626Z,21.73
2022-09-06T02:06:49.042Z,21.86
2022-09-06T02:09:23.266Z,21.54
2022-09-06T02:11:55.338Z,21.49
2022-09-06T02:14:48.572Z,21.33
2022-09-06T02:17:23.605Z,21.66
2022-09-06T02:20:22.533Z,21.63
2022-09-06T02:22:53.232Z,20.90
2022-09-06T02:25:31.570Z,20.81
2022-09-06T02:27:58.572Z,21.32
2022-09-06T02:30:25.428Z,21.70
2022-09-06T02:33:03.882Z,21.60
2022-09-06T02:35:31.075Z,21.72
2022-09-06T02:37:57.996Z,21.85
2022-09-06T02:40:24.810Z,22.32
2022-09-06T02:42:51.518Z,22.11
2022-09-06T02:45:18.159Z,21.44
2022-09-06T02:47:44.776Z,21.17
2022-09-06T02:50:11.488Z,20.94
2022-09-06T02:52:38.124Z,21.31
2022-09-06T02:55:05.199Z,21.60
2022-09-06T02:57:31.887Z,21.81
2022-09-06T02:59:58.580Z,21.39
2022-09-06T03:02:25.231Z,21.36
2022-09-06T03:04:51.906Z,21.04
2022-09-06T03:07:18.518Z,21.48
2022-09-06T03:09:45.153Z,21.54
2022-09-06T03:12:11.911Z,21.14
2022-09-06T03:14:38.531Z,21.75
2022-09-06T03:17:05.206Z,22.10
2022-09-06T03:19:31.948Z,22.35
2022-09-06T03:21:58.567Z,21.79
2022-09-06T03:24:25.184Z,22.22
2022-09-06T03:26:51.832Z,22.45
2022-09-06T03:29:18.437Z,22.49
2022-09-06T03:31:45.151Z,21.65
2022-09-06T03:34:11.799Z,21.33
2022-09-06T03:36:38.453Z,21.75
2022-09-06T03:39:05.077Z,22.12
2022-09-06T03:41:31.677Z,22.50
2022-09-06T03:43:58.299Z,22.48
2022-09-06T03:46:25.100Z,21.68
2022-09-06T03:48:51.790Z,22.04
2022-09-06T03:51:18.424Z,22.64
2022-09-06T03:53:45.144Z,22.57
2022-09-06T03:56:12.173Z,21.80
2022-09-06T03:58:38.802Z,21.46
2022-09-06T04:01:08.659Z,21.63
2022-09-06T04:03:36.824Z,21.38
2022-09-06T04:06:05.365Z,21.37
2022-09-06T04:08:33.498Z,20.96
2022-09-06T04:11:00.376Z,21.90
2022-09-06T04:13:28.452Z,21.70
2022-09-06T04:15:55.094Z,21.94
2022-09-06T04:18:22.400Z,21.63
2022-09-06T04:20:50.763Z,21.75
2022-09-06T04:23:18.372Z,22.41
2022-09-06T04:25:49.633Z,21.72
2022-09-06T04:28:17.494Z,21.34
2022-09-06T04:31:13.385Z,21.62
2022-09-06T04:33:40.632Z,21.68
2022-09-06T04:36:11.476Z,22.32
2022-09-06T04:38:44.072Z,22.24
2022-09-06T04:41:14.420Z,22.56
2022-09-06T04:43:41.672Z,21.94
2022-09-06T04:46:30.149Z,22.62
2022-09-06T04:48:57.888Z,22.52
2022-09-06T04:51:25.349Z,21.79
2022-09-06T04:53:52.277Z,22.27
2022-09-06T04:56:22.136Z,22.42
2022-09-06T04:58:50.230Z,22.49
2022-09-06T05:01:17.217Z,21.99
2022-09-06T05:03:44.166Z,22.28
2022-09-06T05:06:14.095Z,22.27
2022-09-06T05:08:41.763Z,22.01
2022-09-06T05:11:09.375Z,21.37
2022-09-06T05:13:36.039Z,21.51
2022-09-06T05:16:05.803Z,21.41
2022-09-06T05:18:33.562Z,21.53
2022-09-06T05:21:01.784Z,21.13
2022-09-06T05:23:31.132Z,21.69
2022-09-06T05:25:57.760Z,21.87
2022-09-06T05:28:24.510Z,21.75
2022-09-06T05:30:51.240Z,22.00
2022-09-06T05:33:22.640Z,22.34
2022-09-06T05:35:49.845Z,22.50
2022-09-06T05:38:16.991Z,22.92
2022-09-06T05:40:43.901Z,23.02
2022-09-06T05:43:10.579Z,23.20
2022-09-06T05:45:37.450Z,22.58
2022-09-06T05:48:04.466Z,23.02
2022-09-06T05:50:31.165Z,22.75
2022-09-06T05:52:57.810Z,22.48
2022-09-06T05:55:24.569Z,22.23
2022-09-06T05:57:51.232Z,21.98
2022-09-06T06:00:18.073Z,21.85
2022-09-06T06:02:50.345Z,21.84
2022-09-06T06:05:17.044Z,22.40
2022-09-06T06:07:43.671Z,21.99
2022-09-06T06:10:10.893Z,21.99
2022-09-06T06:12:37.575Z,22.47
2022-09-06T06:15:04.548Z,22.74
2022-09-06T06:17:31.263Z,22.58
2022-09-06T06:19:57.891Z,23.19
2022-09-06T06:22:27.093Z,23.65
2022-09-06T06:24:53.700Z,23.62
2022-09-06T06:27:20.366Z,24.19
2022-09-06T06:29:46.964Z,24.40
2022-09-06T06:32:15.938Z,24.66
2022-09-06T06:34:42.583Z,24.76
2022-09-06T06:37:09.212Z,24.64
2022-09-06T06:39:35.902Z,24.57
2022-09-06T06:42:02.522Z,24.60
2022-09-06T06:44:29.218Z,24.82
2022-09-06T06:46:56.431Z,24.25
2022-09-06T06:49:23.037Z,23.91
2022-09-06T06:51:49.653Z,23.77
2022-09-06T06:54:16.284Z,24.17
2022-09-06T06:56:42.901Z,23.85
2022-09-06T06:59:09.512Z,24.35
2022-09-06T07:01:37.111Z,24.63
2022-09-06T07:04:05.179Z,24.72
2022-09-06T07:12:18.697Z,25.13
2022-09-06T07:14:45.387Z,25.32
2022-09-06T07:17:12.175Z,25.41
2022-09-06T07:22:25.420Z,26.80
2022-09-06T07:24:52.033Z,27.25
2022-09-06T07:30:05.859Z,26.51
2022-09-06T07:32:34.949Z,26.64
2022-09-06T07:35:01.569Z,26.57
2022-09-06T07:37:28.186Z,25.66
2022-09-06T07:39:54.898Z,25.62
2022-09-06T07:42:21.590Z,25.09
2022-09-06T07:44:48.329Z,24.69
2022-09-06T07:55:35.207Z,24.06
2022-09-06T07:58:01.848Z,23.91
2022-09-06T08:00:28.494Z,23.92
2022-09-06T08:02:55.119Z,23.67
2022-09-06T08:10:55.114Z,24.05
2022-09-06T08:13:21.855Z,23.86
2022-09-06T08:15:48.506Z,23.92
2022-09-06T08:18:15.201Z,23.28
2022-09-06T08:20:41.841Z,23.41
2022-09-06T08:23:11.172Z,22.63
2022-09-06T08:25:37.791Z,22.54
2022-09-06T08:28:04.403Z,22.19
2022-09-06T08:30:31.051Z,21.84
2022-09-06T08:32:57.737Z,20.54
2022-09-06T08:35:24.421Z,19.61
2022-09-06T08:37:51.147Z,19.59
2022-09-06T08:40:24.245Z,19.69
2022-09-06T08:42:51.618Z,19.43
2022-09-06T08:45:19.632Z,20.40
2022-09-06T08:47:46.243Z,21.01
2022-09-06T08:50:12.860Z,21.56
2022-09-06T08:53:24.023Z,21.78
2022-09-06T08:56:10.804Z,22.23
2022-09-06T08:58:43.477Z,22.46
2022-09-06T09:01:19.054Z,22.93
2022-09-06T09:03:46.707Z,22.99
2022-09-06T09:06:15.984Z,23.13
2022-09-06T09:09:01.508Z,22.46
2022-09-06T09:11:29.695Z,22.42
2022-09-06T09:14:08.641Z,21.96
2022-09-06T09:16:35.676Z,23.05
2022-09-06T09:19:05.214Z,22.49
2022-09-06T09:21:38.053Z,22.63
2022-09-06T09:24:08.269Z,21.21
2022-09-06T09:27:04.561Z,21.04
2022-09-06T09:29:35.703Z,20.54
2022-09-06T09:32:03.203Z,20.67
2022-09-06T09:34:31.559Z,20.33
2022-09-06T09:40:29.986Z,21.40
2022-09-06T09:43:19.044Z,21.31
2022-09-06T09:45:46.642Z,21.77
2022-09-06T09:48:27.516Z,21.42
2022-09-06T09:50:55.183Z,21.41
2022-09-06T09:53:24.608Z,21.53
2022-09-06T09:55:59.385Z,21.37
2022-09-06T09:58:34.152Z,21.31
2022-09-06T10:01:21.566Z,21.42
2022-09-06T10:09:34.969Z,22.36
2022-09-06T10:12:01.871Z,22.43
2022-09-06T10:14:32.846Z,22.62
2022-09-06T10:17:00.565Z,23.07
2022-09-06T10:19:45.276Z,23.52
2022-09-06T10:22:35.178Z,23.72
2022-09-06T10:25:14.700Z,23.73
2022-09-06T10:28:10.934Z,23.91
2022-09-06T10:30:54.385Z,23.69
2022-09-06T10:33:34.009Z,23.71
2022-09-06T10:36:03.844Z,24.03
2022-09-06T10:38:52.060Z,24.45
2022-09-06T10:41:42.276Z,24.51
2022-09-06T10:44:29.166Z,24.78
2022-09-06T10:47:12.422Z,24.77
2022-09-06T10:49:45.131Z,24.63
2022-09-06T10:52:21.260Z,24.63
2022-09-06T10:54:48.417Z,24.89
2022-09-06T11:00:20.579Z,24.68
2022-09-06T11:06:10.869Z,24.97
2022-09-06T11:08:55.859Z,24.77
2022-09-06T11:11:36.390Z,24.81
2022-09-06T11:14:13.137Z,24.43
2022-09-06T11:16:51.642Z,24.75
2022-09-06T11:19:27.462Z,24.24
2022-09-06T11:22:40.335Z,24.03
2022-09-06T11:25:22.803Z,24.36
2022-09-06T11:27:58.332Z,24.55
2022-09-06T11:30:29.825Z,24.69
2022-09-06T11:33:21.227Z,24.57
2022-09-06T11:35:47.898Z,24.49
2022-09-06T11:38:14.460Z,24.56
2022-09-06T11:40:48.745Z,24.61
2022-09-06T11:43:37.741Z,24.39
2022-09-06T11:46:04.590Z,24.52
2022-09-06T11:48:36.126Z,24.09
2022-09-06T11:51:08.307Z,24.42
2022-09-06T11:53:57.793Z,24.88
2022-09-06T11:56:33.214Z,25.00
2022-09-06T11:59:19.734Z,24.91
2022-09-06T12:01:55.086Z,25.09
2022-09-06T12:04:23.316Z,24.43
2022-09-06T12:07:12.262Z,24.86
2022-09-06T12:09:40.748Z,24.82
2022-09-06T12:12:10.638Z,25.13
2022-09-06T12:14:45.399Z,25.13
2022-09-06T12:17:14.933Z,25.11
2022-09-06T12:19:55.057Z,25.08
2022-09-06T12:22:27.366Z,25.21
2022-09-06T12:25:06.893Z,24.90
2022-09-06T12:27:37.699Z,25.16
2022-09-06T12:30:13.774Z,24.95
2022-09-06T12:32:45.585Z,24.79
2022-09-06T12:38:16.150Z,26.01
2022-09-06T12:40:49.749Z,25.69
2022-09-06T12:43:19.124Z,26.05
2022-09-06T12:45:49.074Z,26.13
2022-09-06T12:48:30.990Z,26.45
2022-09-06T12:51:10.323Z,27.04
2022-09-06T12:53:37.094Z,26.97
2022-09-06T12:56:09.695Z,26.84
2022-09-06T12:58:37.033Z,26.99
2022-09-06T13:01:22.936Z,26.91
2022-09-06T13:04:14.264Z,26.96
2022-09-06T13:06:47.048Z,26.97
2022-09-06T13:09:18.846Z,26.70
2022-09-06T13:11:51.065Z,27.05
2022-09-06T13:14:24.137Z,27.28
2022-09-06T13:16:53.456Z,26.62
2022-09-06T13:19:40.905Z,26.62
2022-09-06T13:22:10.730Z,26.43
2022-09-06T13:24:37.308Z,26.66
2022-09-06T13:27:47.186Z,25.94
2022-09-06T13:30:39.096Z,25.70
2022-09-06T13:33:07.753Z,25.81
2022-09-06T13:35:37.696Z,25.88
2022-09-06T13:38:39.276Z,26.48
2022-09-06T13:41:27.384Z,26.29
2022-09-06T13:44:00.167Z,26.39
2022-09-06T13:46:27.794Z,26.38
2022-09-06T13:48:58.134Z,26.39
2022-09-06T13:51:25.298Z,26.39
2022-09-06T13:54:02.822Z,26.27
2022-09-06T13:56:29.486Z,26.05
2022-09-06T13:58:56.116Z,25.11
2022-09-06T14:01:22.784Z,25.72
2022-09-06T14:03:49.985Z,25.38
2022-09-06T14:06:16.603Z,25.28
2022-09-06T14:09:05.797Z,25.48
2022-09-06T14:11:29.965Z,25.60
2022-09-06T14:13:56.640Z,25.43
2022-09-06T14:16:23.780Z,25.33
2022-09-06T14:18:51.303Z,25.07
2022-09-06T14:21:18.194Z,25.37
2022-09-06T14:23:49.141Z,25.15
2022-09-06T14:26:15.790Z,25.32
2022-09-06T14:28:42.493Z,25.14
2022-09-06T14:31:13.443Z,24.94
2022-09-06T14:33:40.125Z,25.34
2022-09-06T14:36:09.282Z,25.08
2022-09-06T14:38:38.138Z,24.74
2022-09-06T14:41:06.900Z,25.02
2022-09-06T14:43:34.484Z,25.20
2022-09-06T14:46:10.877Z,25.40
2022-09-06T14:48:41.956Z,25.61
2022-09-06T14:51:13.124Z,26.11
2022-09-06T14:53:44.767Z,25.71
2022-09-06T14:56:12.316Z,25.42
2022-09-06T14:58:41.747Z,25.36
2022-09-06T15:01:12.893Z,24.80
2022-09-06T15:03:42.939Z,25.24
2022-09-06T15:06:10.920Z,25.56
2022-09-06T15:08:38.086Z,25.29
2022-09-06T15:11:06.338Z,25.45
2022-09-06T15:13:33.011Z,25.67
2022-09-06T15:15:59.680Z,25.73
2022-09-06T15:18:26.423Z,25.48
2022-09-06T15:20:53.063Z,25.12
2022-09-06T15:23:25.308Z,24.52
2022-09-06T15:25:53.124Z,24.74
2022-09-06T15:28:20.197Z,24.52
2022-09-06T15:30:47.647Z,24.38
2022-09-06T15:33:14.836Z,24.43
2022-09-06T15:35:44.657Z,24.97
2022-09-06T15:38:12.083Z,25.63
2022-09-06T15:40:41.625Z,25.55
2022-09-06T15:43:08.266Z,25.45
2022-09-06T15:45:47.894Z,26.04
2022-09-06T15:48:16.683Z,26.19
2022-09-06T15:50:51.291Z,26.93
2022-09-06T15:53:20.048Z,25.54
2022-09-06T15:55:46.683Z,25.43
2022-09-06T15:58:13.324Z,25.17
2022-09-06T16:00:39.966Z,25.86
2022-09-06T16:03:06.633Z,25.30
2022-09-06T16:08:23.718Z,25.12
2022-09-06T16:10:50.414Z,25.30
2022-09-06T16:13:17.017Z,25.18
2022-09-06T16:15:43.650Z,25.38
2022-09-06T16:18:10.267Z,25.66
2022-09-06T16:20:39.710Z,25.70
2022-09-06T16:23:06.328Z,25.94
2022-09-06T16:25:33.039Z,26.00
2022-09-06T16:27:59.666Z,25.90
2022-09-06T16:30:26.472Z,25.62
2022-09-06T16:32:53.162Z,24.90
2022-09-06T16:35:19.834Z,24.29
2022-09-06T16:37:46.460Z,24.59
2022-09-06T16:40:13.310Z,25.23
2022-09-06T16:42:40.013Z,25.43
2022-09-06T16:45:06.905Z,25.30
2022-09-06T16:47:33.548Z,25.44
2022-09-06T16:50:00.205Z,25.14
2022-09-06T16:52:26.866Z,25.09
2022-09-06T16:54:53.504Z,25.02
2022-09-06T16:57:20.159Z,24.82
2022-09-06T16:59:46.782Z,24.47
2022-09-06T17:02:13.571Z,23.63
2022-09-06T17:04:40.285Z,23.38
2022-09-06T17:07:06.923Z,23.52
2022-09-06T17:09:33.563Z,23.35
2022-09-06T17:12:00.196Z,23.58
2022-09-06T17:14:26.826Z,23.59
2022-09-06T17:16:53.573Z,23.65
2022-09-06T17:19:20.273Z,23.93
2022-09-06T17:21:46.917Z,24.09
2022-09-06T17:24:13.706Z,23.80
2022-09-06T17:26:40.386Z,23.55
2022-09-06T17:29:07.672Z,23.09
2022-09-06T17:31:34.885Z,23.46
2022-09-06T17:34:01.795Z,22.90
2022-09-06T17:36:32.921Z,22.83
2022-09-06T17:39:11.765Z,22.94
2022-09-06T17:41:41.496Z,23.11
2022-09-06T17:44:10.672Z,23.70
2022-09-06T17:46:43.927Z,23.41
2022-09-06T17:49:19.124Z,24.12
2022-09-06T17:51:47.092Z,23.99
2022-09-06T17:54:15.180Z,24.66
2022-09-06T17:56:42.813Z,23.87
2022-09-06T17:59:12.657Z,23.82
2022-09-06T18:01:41.450Z,23.97
2022-09-06T18:04:09.670Z,23.89
2022-09-06T18:06:37.896Z,24.23
2022-09-06T18:09:09.203Z,24.24
2022-09-06T18:11:38.020Z,24.20
2022-09-06T18:14:12.188Z,23.70
2022-09-06T18:16:40.259Z,23.13
2022-09-06T18:19:08.951Z,23.37
2022-09-06T18:21:38.708Z,23.24
2022-09-06T18:24:06.175Z,23.57
2022-09-06T18:26:33.094Z,23.69
2022-09-06T18:29:00.838Z,23.59
2022-09-06T18:31:28.497Z,23.36
2022-09-06T18:33:56.169Z,23.34
2022-09-06T18:36:22.863Z,23.14
2022-09-06T18:38:49.575Z,22.85
2022-09-06T18:41:16.466Z,23.06
2022-09-06T18:43:43.319Z,22.78
2022-09-06T18:46:13.065Z,22.59
2022-09-06T18:48:40.909Z,22.52
2022-09-06T18:51:11.614Z,22.90
2022-09-06T18:53:43.970Z,22.79
2022-09-06T18:56:13.034Z,23.02
2022-09-06T18:58:40.491Z,23.29
2022-09-06T19:01:16.641Z,23.53
2022-09-06T19:03:44.007Z,23.19
2022-09-06T19:06:17.112Z,23.29
2022-09-06T19:08:44.546Z,22.52
2022-09-06T19:11:14.195Z,22.57
2022-09-06T19:13:41.999Z,22.42
2022-09-06T19:16:11.776Z,22.83
2022-09-06T19:18:40.399Z,23.10
2022-09-06T19:21:15.991Z,22.98
2022-09-06T19:23:45.272Z,22.89
2022-09-06T19:26:15.288Z,23.39
2022-09-06T19:28:41.938Z,23.15
2022-09-06T19:31:13.520Z,23.02
2022-09-06T19:33:44.520Z,23.26
2022-09-06T19:36:12.647Z,23.48
2022-09-06T19:39:02.550Z,22.95
2022-09-06T19:41:29.157Z,22.87
2022-09-06T19:43:57.535Z,23.43
2022-09-06T19:46:25.295Z,23.08
2022-09-06T19:48:54.246Z,23.14
2022-09-06T19:51:21.475Z,23.45
2022-09-06T19:53:50.875Z,23.49
2022-09-06T19:56:20.756Z,23.68
2022-09-06T19:58:52.325Z,23.03
2022-09-06T20:01:19.101Z,23.19
2022-09-06T20:03:45.758Z,23.48
2022-09-06T20:06:12.396Z,23.13
2022-09-06T20:08:40.107Z,23.19
2022-09-06T20:11:09.936Z,22.98
2022-09-06T20:13:38.360Z,23.19
2022-09-06T20:16:10.273Z,23.09
2022-09-06T20:18:37.410Z,23.18
2022-09-06T20:21:05.061Z,22.96
2022-09-06T20:23:33.761Z,22.87
2022-09-06T20:26:09.544Z,21.39
2022-09-06T20:28:37.376Z,20.62
2022-09-06T20:31:10.175Z,20.25
2022-09-06T20:33:37.488Z,20.29
2022-09-06T20:36:07.084Z,20.65
2022-09-06T20:38:36.906Z,20.53
2022-09-06T20:41:06.941Z,20.32
2022-09-06T20:43:35.520Z,20.42
2022-09-06T20:46:22.543Z,21.15
2022-09-06T20:48:49.736Z,21.98
2022-09-06T20:51:21.826Z,22.05
2022-09-06T20:53:55.241Z,21.97
2022-09-06T20:56:28.366Z,22.48
2022-09-06T20:59:02.746Z,22.72
2022-09-06T21:01:33.611Z,22.82
2022-09-06T21:04:05.450Z,22.69
2022-09-06T21:06:34.312Z,21.68
2022-09-06T21:09:01.933Z,21.55
2022-09-06T21:11:28.731Z,21.94
2022-09-06T21:13:57.010Z,22.42
2022-09-06T21:16:26.829Z,22.48
2022-09-06T21:18:59.483Z,22.63
2022-09-06T21:21:28.618Z,21.89
2022-09-06T21:23:55.614Z,21.50
2022-09-06T21:26:22.374Z,21.94
2022-09-06T21:28:49.751Z,21.70
2022-09-06T21:31:20.635Z,21.95
2022-09-06T21:33:49.902Z,22.13
2022-09-06T21:36:19.571Z,22.45
2022-09-06T21:38:48.928Z,22.30
2022-09-06T21:41:17.889Z,21.84
2022-09-06T21:43:45.733Z,21.82
2022-09-06T21:46:15.611Z,22.17
2022-09-06T21:48:47.667Z,22.09
2022-09-06T21:51:19.806Z,22.08
2022-09-06T21:53:48.792Z,22.36
2022-09-06T21:56:16.506Z,22.45
2022-09-06T21:58:43.278Z,22.40
2022-09-06T22:01:12.757Z,22.33
2022-09-06T22:03:39.616Z,21.69
2022-09-06T22:06:10.378Z,21.51
2022-09-06T22:08:38.149Z,21.07
2022-09-06T22:11:12.720Z,21.06
2022-09-06T22:13:40.438Z,21.09
2022-09-06T22:16:08.460Z,20.74
2022-09-06T22:18:35.719Z,21.12
2022-09-06T22:21:08.981Z,21.39
2022-09-06T22:23:36.699Z,21.37
2022-09-06T22:26:10.547Z,21.42
2022-09-06T22:28:38.488Z,21.45
2022-09-06T22:31:06.139Z,21.45
2022-09-06T22:33:33.473Z,21.55
2022-09-06T22:36:00.244Z,21.53
2022-09-06T22:38:28.545Z,21.80
2022-09-06T22:40:58.276Z,21.98
2022-09-06T22:43:25.724Z,22.10
2022-09-06T22:45:52.477Z,21.59
2022-09-06T22:48:19.656Z,20.68
2022-09-06T22:50:47.422Z,20.85
2022-09-06T22:53:14.110Z,20.84
2022-09-06T22:55:47.128Z,21.08
2022-09-06T22:58:16.296Z,21.23
2022-09-06T23:00:43.095Z,21.21
2022-09-06T23:03:09.798Z,21.25
2022-09-06T23:05:36.491Z,21.22
2022-09-06T23:08:03.462Z,20.55
2022-09-06T23:10:31.529Z,21.18
2022-09-06T23:12:59.488Z,21.58
2022-09-06T23:15:26.164Z,20.85
2022-09-06T23:17:52.817Z,21.44
2022-09-06T23:20:19.457Z,20.86
2022-09-06T23:22:47.418Z,20.92
2022-09-06T23:25:14.174Z,21.36
2022-09-06T23:27:40.937Z,21.31
2022-09-06T23:30:08.343Z,21.09
2022-09-06T23:32:34.985Z,21.16
2022-09-06T23:35:01.623Z,20.60
2022-09-06T23:37:28.482Z,20.69
2022-09-06T23:39:55.249Z,21.41
2022-09-06T23:42:22.068Z,21.84
2022-09-06T23:44:49.531Z,21.53
2022-09-06T23:47:16.141Z,20.75
2022-09-06T23:49:42.941Z,21.30
2022-09-06T23:52:09.567Z,21.63
2022-09-06T23:54:36.210Z,20.97
2022-09-06T23:57:02.898Z,21.09
2022-09-06T23:59:29.514Z,21.10
